Atmospheric History
02/08/2018 18:32  to  2/9/2018 18:32
Change End Date:
To complete the export process:
1) Select all of the data below
2) Copy the data to the clipboard
3) Open a word processor such as Notepad
4) Paste the data into the word processor
5) Save the file

Date/Time (MST), AirTemp, RH, Dewpoint ,AvgWindSpeed, GustWindSpeed, WindDirection, PrecipType, PrecipIntensity, PrecipAccumulation, PrecipRate ,Visibility
02/09/2018 18:29, -7, 89, -10 ,4, 6, W, None, None, ,   ,
02/09/2018 18:22, -8, 86, -11 ,2, 5, SW, None, None, ,   ,
02/09/2018 18:19, -8, 86, -10 ,3, 5, SW, None, None, ,   ,
02/09/2018 18:09, -6, 87, -9 ,4, 6, SW, None, None, ,   ,
02/09/2018 18:07, -6, 88, -9 ,4, 7, SW, None, None, ,   ,
02/09/2018 17:59, -7, 84, -10 ,6, 9, W, None, None, ,   ,
02/09/2018 17:52, -8, 82, -12 ,8, 9, W, None, None, ,   ,
02/09/2018 17:49, -8, 81, -12 ,7, 8, W, None, None, ,   ,
02/09/2018 17:39, -7, 78, -13 ,8, 9, NW, None, None, ,   ,
02/09/2018 17:37, -7, 77, -13 ,7, 9, NW, None, None, ,   ,
02/09/2018 17:29, -5, 78, -10 ,9, 12, NW, None, None, ,   ,
02/09/2018 17:22, -5, 80, -10 ,12, 12, NW, None, None, ,   ,
02/09/2018 17:19, -6, 80, -11 ,10, 11, NW, None, None, ,   ,
02/09/2018 17:09, -6, 78, -11 ,9, 11, NW, None, None, ,   ,
02/09/2018 17:07, -6, 78, -11 ,10, 11, NW, None, None, ,   ,
02/09/2018 16:59, -5, 78, -10 ,8, 9, W, None, None, ,   ,
02/09/2018 16:52, -4, 81, -8 ,7, 9, W, None, None, ,   ,
02/09/2018 16:49, -3, 84, -7 ,6, 7, W, None, None, ,   ,
02/09/2018 16:39, -2, 84, -6 ,6, 7, SW, None, None, ,   ,
02/09/2018 16:37, -2, 84, -6 ,5, 6, SW, None, None, ,   ,
02/09/2018 16:29, -2, 84, -5 ,5, 6, SW, None, None, ,   ,
02/09/2018 16:22, -2, 86, -5 ,6, 6, SW, None, None, ,   ,
02/09/2018 16:19, -2, 86, -6 ,6, 6, SW, None, None, ,   ,
02/09/2018 16:09, -3, 81, -7 ,5, 6, SW, None, None, ,   ,
02/09/2018 16:07, -3, 80, -7 ,5, 6, SW, None, None, ,   ,
02/09/2018 15:59, -2, 80, -6 ,5, 6, SW, None, None, ,   ,
02/09/2018 15:52, -1, 80, -6 ,4, 4, SW, None, None, ,   ,
02/09/2018 15:48, -1, 82, -5 ,3, 6, SW, None, None, ,   ,
02/09/2018 15:38, -1, 80, -6 ,4, 5, SW, None, None, ,   ,
02/09/2018 15:37, -1, 81, -6 ,4, 4, SW, None, None, ,   ,
02/09/2018 15:28, -2, 80, -6 ,4, 6, SW, None, None, ,   ,
02/09/2018 15:22, -2, 79, -7 ,6, 6, SW, None, None, ,   ,
02/09/2018 15:18, -2, 77, -7 ,4, 6, SW, None, None, ,   ,
02/09/2018 15:08, -1, 77, -7 ,4, 4, S, None, None, ,   ,
02/09/2018 15:07, -1, 77, -7 ,4, 4, S, None, None, ,   ,
02/09/2018 14:58, -1, 79, -6 ,3, 5, SW, None, None, ,   ,
02/09/2018 14:52, -1, 78, -6 ,4, 5, SW, None, None, ,   ,
02/09/2018 14:48, -1, 78, -6 ,4, 5, SW, None, None, ,   ,
02/09/2018 14:38, 0, 76, -5 ,4, 6, W, None, None, ,   ,
02/09/2018 14:37, 1, 77, -5 ,4, 6, W, None, None, ,   ,
02/09/2018 14:28, -1, 77, -6 ,6, 6, W, None, None, ,   ,
02/09/2018 14:22, 0, 76, -6 ,6, 7, W, None, None, ,   ,
02/09/2018 14:18, 0, 76, -6 ,6, 7, W, None, None, ,   ,
02/09/2018 14:08, 2, 69, -6 ,6, 7, W, None, None, ,   ,
02/09/2018 14:07, 2, 70, -6 ,6, 7, W, None, None, ,   ,
02/09/2018 13:58, 2, 70, -5 ,5, 7, W, None, None, ,   ,
02/09/2018 13:52, 1, 71, -6 ,6, 7, W, None, None, ,   ,
02/09/2018 13:48, 1, 70, -6 ,6, 7, W, None, None, ,   ,
02/09/2018 13:38, 2, 70, -5 ,6, 7, W, None, None, ,   ,
02/09/2018 13:37, 2, 70, -5 ,5, 7, W, None, None, ,   ,
02/09/2018 13:28, 2, 71, -5 ,5, 7, W, None, None, ,   ,
02/09/2018 13:22, 2, 69, -6 ,6, 7, W, None, None, ,   ,
02/09/2018 13:18, 2, 69, -5 ,5, 6, W, None, None, ,   ,
02/09/2018 13:08, 2, 71, -5 ,5, 7, W, None, None, ,   ,
02/09/2018 13:07, 2, 71, -5 ,5, 7, W, None, None, ,   ,
02/09/2018 12:58, 1, 73, -6 ,6, 7, W, None, None, ,   ,
02/09/2018 12:52, 1, 73, -5 ,6, 7, NW, None, None, ,   ,
02/09/2018 12:48, 1, 75, -5 ,6, 7, NW, None, None, ,   ,
02/09/2018 12:37, 1, 75, -5 ,6, 7, NW, None, None, ,   ,
02/09/2018 12:37, 1, 74, -5 ,6, 7, NW, None, None, ,   ,
02/09/2018 12:27, 2, 73, -5 ,6, 7, NW, None, None, ,   ,
02/09/2018 12:22, 2, 75, -4 ,6, 7, W, None, None, ,   ,
02/09/2018 12:17, 1, 76, -5 ,6, 7, W, None, None, ,   ,
02/09/2018 12:07, 1, 75, -5 ,6, 7, W, None, None, ,   ,
02/09/2018 12:07, 1, 75, -5 ,6, 7, W, None, None, ,   ,
02/09/2018 11:57, 2, 75, -5 ,6, 8, W, None, None, ,   ,
02/09/2018 11:52, 1, 76, -4 ,6, 8, W, None, None, ,   ,
02/09/2018 11:47, 1, 76, -5 ,5, 7, W, None, None, ,   ,
02/09/2018 11:37, 2, 77, -3 ,3, 4, NW, None, None, ,   ,
02/09/2018 11:37, 2, 77, -3 ,3, 4, NW, None, None, ,   ,
02/09/2018 11:27, 3, 77, -2 ,4, 4, NW, None, None, ,   ,
02/09/2018 11:22, 4, 80, -1 ,4, 4, NW, None, None, ,   ,
02/09/2018 11:17, 3, 84, 0 ,2, 3, NW, None, None, ,   ,
02/09/2018 11:07, -1, 84, -5 ,2, 4, W, None, None, ,   ,
02/09/2018 11:07, -1, 84, -5 ,2, 4, W, None, None, ,   ,
02/09/2018 10:57, -2, 84, -5 ,2, 4, W, None, None, ,   ,
02/09/2018 10:52, -2, 85, -5 ,3, 4, W, None, None, ,   ,
02/09/2018 10:47, -2, 84, -6 ,3, 6, W, None, None, ,   ,
02/09/2018 10:37, -3, 84, -6 ,4, 6, W, None, None, ,   ,
02/09/2018 10:37, -3, 84, -6 ,5, 6, W, None, None, ,   ,
02/09/2018 10:27, -2, 84, -6 ,4, 6, SW, None, None, ,   ,
02/09/2018 10:22, -2, 84, -6 ,4, 4, SW, None, None, ,   ,
02/09/2018 10:17, -2, 84, -6 ,4, 5, SW, None, None, ,   ,
02/09/2018 10:07, -2, 84, -6 ,4, 6, SW, None, None, ,   ,
02/09/2018 10:07, -2, 84, -6 ,4, 6, SW, None, None, ,   ,
02/09/2018 09:57, -2, 84, -6 ,6, 7, SW, None, None, ,   ,
02/09/2018 09:52, -2, 84, -6 ,6, 7, SW, None, None, ,   ,
02/09/2018 09:47, -2, 84, -6 ,6, 6, SW, None, None, ,   ,
02/09/2018 09:37, -3, 84, -6 ,4, 4, SW, None, None, ,   ,
02/09/2018 09:37, -3, 84, -6 ,4, 4, SW, None, None, ,   ,
02/09/2018 09:27, -2, 85, -6 ,4, 5, W, None, None, ,   ,
02/09/2018 09:22, -2, 85, -6 ,4, 4, W, None, None, ,   ,
02/09/2018 09:16, -2, 85, -6 ,4, 4, W, None, None, ,   ,
02/09/2018 09:07, -2, 85, -6 ,2, 4, W, Yes, , ,   ,
02/09/2018 09:06, -3, 85, -6 ,2, 4, W, Yes, , ,   ,
02/09/2018 08:56, -3, 85, -6 ,4, 5, NW, Yes, , ,   ,
02/09/2018 08:52, -3, 84, -6 ,4, 5, NW, Yes, , ,   ,
02/09/2018 08:46, -2, 85, -6 ,4, 4, NW, Yes, , ,   ,
02/09/2018 08:37, -3, 85, -6 ,3, 5, NW, None, None, ,   ,
02/09/2018 08:36, -3, 85, -6 ,3, 6, NW, None, None, ,   ,
02/09/2018 08:26, -3, 85, -6 ,5, 6, NW, None, None, ,   ,
02/09/2018 08:22, -3, 85, -6 ,4, 4, NW, None, None, ,   ,
02/09/2018 08:16, -3, 85, -6 ,4, 5, NW, Yes, , ,   ,
02/09/2018 08:07, -3, 85, -7 ,5, 6, NW, None, None, ,   ,
02/09/2018 08:06, -3, 85, -7 ,5, 6, NW, None, None, ,   ,
02/09/2018 07:56, -3, 85, -7 ,4, 4, NW, None, None, ,   ,
02/09/2018 07:52, -3, 85, -7 ,4, 4, N, None, None, ,   ,
02/09/2018 07:46, -3, 85, -7 ,4, 4, N, None, None, ,   ,
02/09/2018 07:37, -3, 85, -7 ,4, 4, NW, None, None, ,   ,
02/09/2018 07:36, -3, 85, -7 ,4, 4, NW, None, None, ,   ,
02/09/2018 07:26, -3, 85, -6 ,2, 2, N, None, None, ,   ,
02/09/2018 07:22, -3, 85, -6 ,2, 2, N, None, None, ,   ,
02/09/2018 07:16, -3, 85, -6 ,2, 2, N, None, None, ,   ,
02/09/2018 07:07, -3, 85, -6 ,2, 3, N, None, None, ,   ,
02/09/2018 07:06, -3, 85, -6 ,2, 3, N, None, None, ,   ,
02/09/2018 06:56, -3, 85, -6 ,2, 3, N, None, None, ,   ,
02/09/2018 06:52, -3, 85, -6 ,2, 2, N, None, None, ,   ,
02/09/2018 06:46, -3, 85, -6 ,2, 2, N, Yes, , ,   ,
02/09/2018 06:37, -3, 85, -6 ,1, 2, NE, None, None, ,   ,
02/09/2018 06:36, -3, 85, -6 ,1, 2, NE, Yes, , ,   ,
02/09/2018 06:26, -3, 85, -6 ,2, 5, NE, Yes, , ,   ,
02/09/2018 06:22, -3, 85, -6 ,3, 6, NE, None, None, ,   ,
02/09/2018 06:16, -3, 85, -6 ,4, 6, NE, None, None, ,   ,
02/09/2018 06:07, -3, 85, -6 ,4, 5, N, None, None, ,   ,
02/09/2018 06:06, -3, 85, -6 ,4, 5, N, None, None, ,   ,
02/09/2018 05:55, -3, 85, -6 ,4, 5, NE, None, None, ,   ,
02/09/2018 05:52, -3, 85, -6 ,4, 5, NE, None, None, ,   ,
02/09/2018 05:45, -3, 85, -6 ,3, 3, NE, None, None, ,   ,
02/09/2018 05:37, -3, 85, -6 ,3, 3, NE, None, None, ,   ,
02/09/2018 05:35, -3, 85, -6 ,2, 3, NE, None, None, ,   ,
02/09/2018 05:25, -3, 85, -6 ,2, 3, NE, None, None, ,   ,
02/09/2018 05:22, -3, 85, -6 ,2, 3, NE, None, None, ,   ,
02/09/2018 05:15, -3, 85, -6 ,2, 3, NE, Yes, , ,   ,
02/09/2018 05:07, -3, 85, -6 ,3, 6, NE, None, None, ,   ,
02/09/2018 05:05, -3, 85, -6 ,4, 6, NE, None, None, ,   ,
02/09/2018 04:55, -3, 85, -6 ,3, 4, NE, None, None, ,   ,
02/09/2018 04:52, -3, 85, -6 ,2, 3, NE, None, None, ,   ,
02/09/2018 04:45, -3, 85, -6 ,3, 4, N, Yes, , ,   ,
02/09/2018 04:37, -3, 85, -6 ,2, 3, N, Yes, , ,   ,
02/09/2018 04:35, -3, 85, -6 ,2, 2, N, Yes, , ,   ,
02/09/2018 04:25, -3, 85, -6 ,2, 4, NE, Yes, , ,   ,
02/09/2018 04:22, -3, 85, -6 ,3, 4, NE, None, None, ,   ,
02/09/2018 04:15, -3, 85, -6 ,2, 3, NE, Yes, , ,   ,
02/09/2018 04:07, -3, 85, -6 ,2, 3, NE, None, None, ,   ,
02/09/2018 04:05, -3, 85, -6 ,2, 3, NE, None, None, ,   ,
02/09/2018 03:55, -3, 85, -6 ,2, 5, NE, Yes, , ,   ,
02/09/2018 03:52, -3, 85, -6 ,3, 6, NE, None, None, ,   ,
02/09/2018 03:45, -3, 85, -6 ,5, 6, NE, None, None, ,   ,
02/09/2018 03:37, -3, 85, -7 ,4, 4, NE, None, None, ,   ,
02/09/2018 03:35, -3, 85, -7 ,4, 4, NE, None, None, ,   ,
02/09/2018 03:25, -3, 85, -7 ,1, 3, E, Yes, , ,   ,
02/09/2018 03:22, -3, 85, -7 ,0, 4, E, Yes, , ,   ,
02/09/2018 03:15, -3, 85, -7 ,3, 6, NE, Yes, , ,   ,
02/09/2018 03:07, -4, 85, -7 ,5, 7, E, None, None, ,   ,
02/09/2018 03:05, -3, 85, -7 ,6, 7, E, None, None, ,   ,
02/09/2018 02:55, -3, 86, -7 ,7, 7, NE, None, None, ,   ,
02/09/2018 02:52, -3, 86, -6 ,6, 7, NE, None, None, ,   ,
02/09/2018 02:45, -3, 86, -6 ,6, 7, NE, None, None, ,   ,
02/09/2018 02:37, -3, 86, -6 ,6, 7, E, None, None, ,   ,
02/09/2018 02:34, -3, 86, -6 ,6, 7, NE, None, None, ,   ,
02/09/2018 02:24, -3, 86, -7 ,6, 8, NE, None, None, ,   ,
02/09/2018 02:22, -3, 86, -7 ,6, 8, NE, None, None, ,   ,
02/09/2018 02:14, -4, 86, -7 ,7, 8, NE, None, None, ,   ,
02/09/2018 02:07, -4, 86, -7 ,7, 9, NE, None, None, ,   ,
02/09/2018 02:04, -3, 86, -7 ,8, 9, NE, None, None, ,   ,
02/09/2018 01:54, -4, 86, -7 ,7, 9, NE, None, None, ,   ,
02/09/2018 01:52, -4, 86, -7 ,8, 9, NE, None, None, ,   ,
02/09/2018 01:44, -4, 86, -7 ,7, 8, NE, None, None, ,   ,
02/09/2018 01:37, -4, 86, -7 ,7, 7, NE, None, None, ,   ,
02/09/2018 01:34, -4, 85, -7 ,7, 7, NE, None, None, ,   ,
02/09/2018 01:24, -4, 86, -7 ,6, 7, NE, None, None, ,   ,
02/09/2018 01:22, -4, 86, -7 ,6, 7, NE, None, None, ,   ,
02/09/2018 01:14, -4, 86, -7 ,7, 9, NE, None, None, ,   ,
02/09/2018 01:07, -4, 86, -7 ,8, 9, NE, None, None, ,   ,
02/09/2018 01:04, -4, 86, -7 ,9, 9, NE, None, None, ,   ,
02/09/2018 00:54, -4, 85, -7 ,9, 9, NE, None, None, ,   ,
02/09/2018 00:52, -4, 85, -8 ,8, 9, NE, None, None, ,   ,
02/09/2018 00:44, -3, 86, -6 ,7, 9, NE, None, None, ,   ,
02/09/2018 00:37, -3, 87, -5 ,7, 10, NE, None, None, ,   ,
02/09/2018 00:34, -2, 87, -5 ,9, 10, NE, None, None, ,   ,
02/09/2018 00:24, -2, 88, -5 ,7, 9, NE, None, None, ,   ,
02/09/2018 00:22, -2, 88, -5 ,7, 9, NE, None, None, ,   ,
02/09/2018 00:14, -2, 88, -4 ,7, 9, NE, None, None, ,   ,
02/09/2018 00:07, -2, 87, -5 ,6, 7, NE, None, None, ,   ,
02/09/2018 00:04, -2, 87, -5 ,6, 7, E, None, None, ,   ,
02/08/2018 23:54, -2, 86, -5 ,6, 7, NE, None, None, ,   ,
02/08/2018 23:52, -2, 86, -5 ,7, 7, NE, None, None, ,   ,
02/08/2018 23:44, -1, 86, -5 ,4, 6, NE, None, None, ,   ,
02/08/2018 23:37, -1, 85, -5 ,6, 7, NE, None, None, ,   ,
02/08/2018 23:34, -1, 84, -5 ,6, 7, NE, None, None, ,   ,
02/08/2018 23:24, -1, 83, -5 ,7, 9, NE, None, None, ,   ,
02/08/2018 23:22, -1, 83, -5 ,7, 9, NE, None, None, ,   ,
02/08/2018 23:13, -1, 84, -5 ,7, 9, NE, None, None, ,   ,
02/08/2018 23:07, -1, 84, -4 ,7, 9, NE, None, None, ,   ,
02/08/2018 23:03, -1, 85, -4 ,8, 9, NE, None, None, ,   ,
02/08/2018 22:53, -1, 85, -5 ,8, 10, NE, None, None, ,   ,
02/08/2018 22:52, -1, 85, -5 ,8, 10, NE, None, None, ,   ,
02/08/2018 22:43, -1, 84, -5 ,9, 11, NE, None, None, ,   ,
02/08/2018 22:37, -1, 84, -4 ,10, 11, NE, None, None, ,   ,
02/08/2018 22:33, -1, 85, -4 ,9, 11, NE, None, None, ,   ,
02/08/2018 22:23, 0, 84, -4 ,7, 9, NE, None, None, ,   ,
02/08/2018 22:22, 0, 84, -4 ,7, 10, NE, None, None, ,   ,
02/08/2018 22:13, 0, 85, -3 ,9, 11, NE, None, None, ,   ,
02/08/2018 22:07, 0, 85, -3 ,9, 11, NE, None, None, ,   ,
02/08/2018 22:03, 0, 86, -3 ,7, 9, NE, None, None, ,   ,
02/08/2018 21:53, 1, 86, -3 ,7, 10, NE, None, None, ,   ,
02/08/2018 21:52, 1, 86, -3 ,7, 10, NE, None, None, ,   ,
02/08/2018 21:43, 1, 87, -2 ,7, 7, NE, None, None, ,   ,
02/08/2018 21:37, 1, 87, -2 ,6, 7, N, None, None, ,   ,
02/08/2018 21:33, 1, 87, -2 ,6, 7, N, None, None, ,   ,
02/08/2018 21:23, 1, 87, -2 ,7, 9, N, None, None, ,   ,
02/08/2018 21:22, 1, 87, -2 ,7, 9, N, None, None, ,   ,
02/08/2018 21:13, 1, 86, -2 ,9, 9, N, None, None, ,   ,
02/08/2018 21:07, 1, 87, -2 ,9, 11, N, None, None, ,   ,
02/08/2018 21:03, 1, 87, -2 ,10, 11, N, None, None, ,   ,
02/08/2018 20:53, 1, 87, -2 ,7, 9, N, None, None, ,   ,
02/08/2018 20:52, 1, 87, -2 ,7, 9, N, None, None, ,   ,
02/08/2018 20:43, 1, 87, -2 ,8, 11, N, None, None, ,   ,
02/08/2018 20:37, 1, 87, -2 ,9, 11, N, None, None, ,   ,
02/08/2018 20:33, 1, 86, -2 ,9, 11, N, None, None, ,   ,
02/08/2018 20:23, 1, 86, -2 ,11, 12, N, None, None, ,   ,
02/08/2018 20:22, 1, 86, -2 ,11, 12, N, None, None, ,   ,
02/08/2018 20:13, 1, 87, -2 ,8, 10, N, None, None, ,   ,
02/08/2018 20:07, 1, 87, -2 ,9, 10, N, None, None, ,   ,
02/08/2018 20:02, 1, 86, -2 ,9, 11, N, None, None, ,   ,
02/08/2018 19:52, 1, 85, -2 ,10, 14, N, None, None, ,   ,
02/08/2018 19:52, 1, 85, -2 ,11, 14, N, None, None, ,   ,
02/08/2018 19:42, 2, 86, -2 ,11, 12, N, None, None, ,   ,
02/08/2018 19:37, 2, 86, -2 ,10, 12, N, None, None, ,   ,
02/08/2018 19:32, 2, 86, -2 ,10, 12, N, None, None, ,   ,
02/08/2018 19:22, 2, 86, -2 ,10, 14, N, None, None, ,   ,
02/08/2018 19:22, 2, 86, -2 ,10, 14, N, None, None, ,   ,
02/08/2018 19:12, 2, 84, -2 ,12, 16, N, None, None, ,   ,
02/08/2018 19:07, 2, 85, -2 ,14, 16, N, None, None, ,   ,
02/08/2018 19:02, 2, 85, -2 ,13, 15, N, None, None, ,   ,
02/08/2018 18:52, 2, 83, -2 ,13, 15, N, None, None, ,   ,
02/08/2018 18:52, 2, 84, -2 ,13, 15, N, None, None, ,   ,
02/08/2018 18:42, 2, 83, -2 ,14, 16, N, None, None, ,   ,
02/08/2018 18:37, 2, 83, -2 ,14, 17, N, None, None, ,   ,
02/08/2018 18:32, 2, 83, -2 ,14, 17, N, None, None, ,   ,
Change End Date:

Copyright © 1998-2015 Vaisala, Inc.
All Rights Reserved
Send comments about the data to:
SCAN Web ® is a registered trademark of Vaisala, Inc.
SCAN Web Version 6.0